sensor_id;sensor_type;location;lat;lon;timestamp;P1;durP1;ratioP1;P2;durP2;ratioP2
20150;SDS011;10236;49.638;6.830;2023-02-28T00:00:11;2.23;;;1.27;;
20150;SDS011;10236;49.638;6.830;2023-02-28T00:02:38;2.27;;;1.30;;
20150;SDS011;10236;49.638;6.830;2023-02-28T00:05:04;1.77;;;1.00;;
20150;SDS011;10236;49.638;6.830;2023-02-28T00:07:31;3.07;;;1.40;;
20150;SDS011;10236;49.638;6.830;2023-02-28T00:09:57;2.00;;;1.20;;
20150;SDS011;10236;49.638;6.830;2023-02-28T00:12:23;2.60;;;1.73;;
20150;SDS011;10236;49.638;6.830;2023-02-28T00:14:49;1.77;;;1.23;;
20150;SDS011;10236;49.638;6.830;2023-02-28T00:17:16;2.57;;;1.20;;
20150;SDS011;10236;49.638;6.830;2023-02-28T00:19:46;1.77;;;1.20;;
20150;SDS011;10236;49.638;6.830;2023-02-28T00:22:13;2.57;;;1.40;;
20150;SDS011;10236;49.638;6.830;2023-02-28T00:24:39;4.50;;;1.67;;
20150;SDS011;10236;49.638;6.830;2023-02-28T00:27:05;1.80;;;1.43;;
20150;SDS011;10236;49.638;6.830;2023-02-28T00:29:31;2.23;;;1.20;;
20150;SDS011;10236;49.638;6.830;2023-02-28T00:31:57;2.83;;;1.63;;
20150;SDS011;10236;49.638;6.830;2023-02-28T00:34:23;1.80;;;1.33;;
20150;SDS011;10236;49.638;6.830;2023-02-28T00:36:49;2.07;;;1.53;;
20150;SDS011;10236;49.638;6.830;2023-02-28T00:39:15;2.30;;;1.60;;
20150;SDS011;10236;49.638;6.830;2023-02-28T00:41:41;1.63;;;1.40;;
20150;SDS011;10236;49.638;6.830;2023-02-28T00:44:07;3.50;;;1.93;;
20150;SDS011;10236;49.638;6.830;2023-02-28T00:46:33;2.80;;;1.70;;
20150;SDS011;10236;49.638;6.830;2023-02-28T00:48:59;3.33;;;1.80;;
20150;SDS011;10236;49.638;6.830;2023-02-28T00:51:25;2.97;;;1.77;;
20150;SDS011;10236;49.638;6.830;2023-02-28T00:53:51;4.50;;;1.80;;
20150;SDS011;10236;49.638;6.830;2023-02-28T00:56:16;4.20;;;2.47;;
20150;SDS011;10236;49.638;6.830;2023-02-28T00:58:42;4.33;;;2.23;;
20150;SDS011;10236;49.638;6.830;2023-02-28T01:01:09;3.17;;;1.93;;
20150;SDS011;10236;49.638;6.830;2023-02-28T01:03:35;6.37;;;2.20;;
20150;SDS011;10236;49.638;6.830;2023-02-28T01:06:01;3.10;;;2.37;;
20150;SDS011;10236;49.638;6.830;2023-02-28T01:08:27;5.60;;;2.10;;
20150;SDS011;10236;49.638;6.830;2023-02-28T01:11:12;3.00;;;2.30;;
20150;SDS011;10236;49.638;6.830;2023-02-28T01:13:40;3.93;;;2.20;;
20150;SDS011;10236;49.638;6.830;2023-02-28T01:16:06;4.80;;;2.33;;
20150;SDS011;10236;49.638;6.830;2023-02-28T01:18:32;3.53;;;2.43;;
20150;SDS011;10236;49.638;6.830;2023-02-28T01:21:02;4.07;;;2.27;;
20150;SDS011;10236;49.638;6.830;2023-02-28T01:23:28;4.27;;;2.30;;
20150;SDS011;10236;49.638;6.830;2023-02-28T01:25:54;3.37;;;2.30;;
20150;SDS011;10236;49.638;6.830;2023-02-28T01:28:20;4.03;;;2.50;;
20150;SDS011;10236;49.638;6.830;2023-02-28T01:30:49;3.73;;;2.60;;
20150;SDS011;10236;49.638;6.830;2023-02-28T01:33:16;5.13;;;2.93;;
20150;SDS011;10236;49.638;6.830;2023-02-28T01:35:42;4.73;;;2.77;;
20150;SDS011;10236;49.638;6.830;2023-02-28T01:38:08;4.97;;;2.70;;
20150;SDS011;10236;49.638;6.830;2023-02-28T01:40:34;3.53;;;2.53;;
20150;SDS011;10236;49.638;6.830;2023-02-28T01:42:59;4.60;;;2.77;;
20150;SDS011;10236;49.638;6.830;2023-02-28T01:45:27;3.43;;;2.70;;
20150;SDS011;10236;49.638;6.830;2023-02-28T01:47:55;4.77;;;2.53;;
20150;SDS011;10236;49.638;6.830;2023-02-28T01:50:23;3.90;;;3.30;;
20150;SDS011;10236;49.638;6.830;2023-02-28T01:52:50;3.10;;;2.43;;
20150;SDS011;10236;49.638;6.830;2023-02-28T01:55:18;3.50;;;2.70;;
20150;SDS011;10236;49.638;6.830;2023-02-28T01:57:49;4.23;;;2.80;;
20150;SDS011;10236;49.638;6.830;2023-02-28T02:00:17;5.20;;;3.10;;
20150;SDS011;10236;49.638;6.830;2023-02-28T02:02:46;5.37;;;2.77;;
20150;SDS011;10236;49.638;6.830;2023-02-28T02:05:18;6.17;;;3.03;;
20150;SDS011;10236;49.638;6.830;2023-02-28T02:07:44;5.30;;;3.10;;
20150;SDS011;10236;49.638;6.830;2023-02-28T02:26:35;4.80;;;3.13;;
20150;SDS011;10236;49.638;6.830;2023-02-28T02:34:47;3.80;;;3.10;;
20150;SDS011;10236;49.638;6.830;2023-02-28T02:42:49;5.30;;;3.80;;
20150;SDS011;10236;49.638;6.830;2023-02-28T02:47:41;6.47;;;3.47;;
20150;SDS011;10236;49.638;6.830;2023-02-28T02:50:11;3.70;;;3.30;;
20150;SDS011;10236;49.638;6.830;2023-02-28T02:58:46;7.63;;;3.63;;
20150;SDS011;10236;49.638;6.830;2023-02-28T03:01:21;6.03;;;3.90;;
20150;SDS011;10236;49.638;6.830;2023-02-28T03:21:52;4.93;;;4.10;;
20150;SDS011;10236;49.638;6.830;2023-02-28T03:27:24;4.90;;;3.90;;
20150;SDS011;10236;49.638;6.830;2023-02-28T03:33:15;4.13;;;3.73;;
20150;SDS011;10236;49.638;6.830;2023-02-28T03:35:45;9.30;;;4.00;;
20150;SDS011;10236;49.638;6.830;2023-02-28T03:41:00;4.67;;;4.13;;
20150;SDS011;10236;49.638;6.830;2023-02-28T03:43:29;4.87;;;3.63;;
20150;SDS011;10236;49.638;6.830;2023-02-28T03:46:02;4.10;;;3.70;;
20150;SDS011;10236;49.638;6.830;2023-02-28T03:54:23;5.20;;;3.53;;
20150;SDS011;10236;49.638;6.830;2023-02-28T03:56:56;3.67;;;3.07;;
20150;SDS011;10236;49.638;6.830;2023-02-28T03:59:48;4.97;;;3.67;;
20150;SDS011;10236;49.638;6.830;2023-02-28T04:02:15;6.60;;;5.17;;
20150;SDS011;10236;49.638;6.830;2023-02-28T04:04:44;6.77;;;3.63;;
20150;SDS011;10236;49.638;6.830;2023-02-28T04:07:14;7.77;;;3.90;;
20150;SDS011;10236;49.638;6.830;2023-02-28T04:09:43;5.80;;;3.60;;
20150;SDS011;10236;49.638;6.830;2023-02-28T04:12:09;5.80;;;3.40;;
20150;SDS011;10236;49.638;6.830;2023-02-28T04:14:37;4.63;;;3.60;;
20150;SDS011;10236;49.638;6.830;2023-02-28T04:17:08;4.97;;;3.50;;
20150;SDS011;10236;49.638;6.830;2023-02-28T04:19:47;6.87;;;3.43;;
20150;SDS011;10236;49.638;6.830;2023-02-28T04:22:12;7.23;;;3.93;;
20150;SDS011;10236;49.638;6.830;2023-02-28T04:24:38;5.90;;;4.00;;
20150;SDS011;10236;49.638;6.830;2023-02-28T04:27:07;5.00;;;3.90;;
20150;SDS011;10236;49.638;6.830;2023-02-28T04:29:34;8.20;;;3.97;;
20150;SDS011;10236;49.638;6.830;2023-02-28T04:38:07;5.10;;;3.87;;
20150;SDS011;10236;49.638;6.830;2023-02-28T04:40:33;7.87;;;4.70;;
20150;SDS011;10236;49.638;6.830;2023-02-28T04:42:59;7.67;;;4.47;;
20150;SDS011;10236;49.638;6.830;2023-02-28T04:45:25;7.57;;;4.10;;
20150;SDS011;10236;49.638;6.830;2023-02-28T04:47:51;5.13;;;3.83;;
20150;SDS011;10236;49.638;6.830;2023-02-28T04:59:29;7.50;;;4.53;;
20150;SDS011;10236;49.638;6.830;2023-02-28T05:04:49;6.50;;;5.30;;
20150;SDS011;10236;49.638;6.830;2023-02-28T05:07:15;8.10;;;5.70;;
20150;SDS011;10236;49.638;6.830;2023-02-28T05:09:41;6.83;;;5.33;;
20150;SDS011;10236;49.638;6.830;2023-02-28T05:12:08;8.00;;;5.23;;
20150;SDS011;10236;49.638;6.830;2023-02-28T05:14:37;6.60;;;5.50;;
20150;SDS011;10236;49.638;6.830;2023-02-28T05:17:03;6.93;;;5.30;;
20150;SDS011;10236;49.638;6.830;2023-02-28T05:19:29;7.80;;;5.37;;
20150;SDS011;10236;49.638;6.830;2023-02-28T05:21:57;7.43;;;5.87;;
20150;SDS011;10236;49.638;6.830;2023-02-28T05:24:39;9.53;;;6.53;;
20150;SDS011;10236;49.638;6.830;2023-02-28T05:27:07;8.47;;;6.10;;
20150;SDS011;10236;49.638;6.830;2023-02-28T05:29:33;9.60;;;6.83;;
20150;SDS011;10236;49.638;6.830;2023-02-28T05:32:06;9.17;;;6.30;;
20150;SDS011;10236;49.638;6.830;2023-02-28T05:34:32;9.33;;;6.83;;
20150;SDS011;10236;49.638;6.830;2023-02-28T05:36:58;9.97;;;6.77;;
20150;SDS011;10236;49.638;6.830;2023-02-28T05:39:24;10.33;;;7.97;;
20150;SDS011;10236;49.638;6.830;2023-02-28T05:41:50;9.97;;;7.80;;
20150;SDS011;10236;49.638;6.830;2023-02-28T05:44:16;11.00;;;7.77;;
20150;SDS011;10236;49.638;6.830;2023-02-28T05:46:42;13.20;;;9.07;;
20150;SDS011;10236;49.638;6.830;2023-02-28T05:49:08;11.10;;;8.40;;
20150;SDS011;10236;49.638;6.830;2023-02-28T05:51:34;12.20;;;8.03;;
20150;SDS011;10236;49.638;6.830;2023-02-28T05:54:01;10.93;;;8.67;;
20150;SDS011;10236;49.638;6.830;2023-02-28T05:56:27;11.77;;;8.77;;
20150;SDS011;10236;49.638;6.830;2023-02-28T05:58:53;12.70;;;9.17;;
20150;SDS011;10236;49.638;6.830;2023-02-28T06:03:48;12.43;;;9.70;;
20150;SDS011;10236;49.638;6.830;2023-02-28T06:06:14;14.00;;;10.30;;
20150;SDS011;10236;49.638;6.830;2023-02-28T06:08:40;12.57;;;10.00;;
20150;SDS011;10236;49.638;6.830;2023-02-28T06:11:08;13.00;;;9.17;;
20150;SDS011;10236;49.638;6.830;2023-02-28T06:13:34;15.37;;;9.77;;
20150;SDS011;10236;49.638;6.830;2023-02-28T06:16:01;15.03;;;9.83;;
20150;SDS011;10236;49.638;6.830;2023-02-28T06:18:30;14.07;;;10.63;;
20150;SDS011;10236;49.638;6.830;2023-02-28T06:20:56;15.87;;;9.97;;
20150;SDS011;10236;49.638;6.830;2023-02-28T06:23:22;16.13;;;9.77;;
20150;SDS011;10236;49.638;6.830;2023-02-28T06:25:48;13.23;;;9.40;;
20150;SDS011;10236;49.638;6.830;2023-02-28T06:28:14;13.33;;;9.73;;
20150;SDS011;10236;49.638;6.830;2023-02-28T06:30:40;12.90;;;10.10;;
20150;SDS011;10236;49.638;6.830;2023-02-28T06:33:06;15.13;;;9.90;;
20150;SDS011;10236;49.638;6.830;2023-02-28T06:35:32;12.90;;;9.70;;
20150;SDS011;10236;49.638;6.830;2023-02-28T06:37:58;13.77;;;10.03;;
20150;SDS011;10236;49.638;6.830;2023-02-28T06:40:24;13.07;;;9.50;;
20150;SDS011;10236;49.638;6.830;2023-02-28T06:42:50;14.73;;;9.73;;
20150;SDS011;10236;49.638;6.830;2023-02-28T06:45:16;12.70;;;9.77;;
20150;SDS011;10236;49.638;6.830;2023-02-28T06:47:42;11.93;;;9.60;;
20150;SDS011;10236;49.638;6.830;2023-02-28T06:50:12;13.93;;;10.17;;
20150;SDS011;10236;49.638;6.830;2023-02-28T06:52:38;13.17;;;9.57;;
20150;SDS011;10236;49.638;6.830;2023-02-28T06:55:05;15.77;;;9.73;;
20150;SDS011;10236;49.638;6.830;2023-02-28T06:57:32;13.77;;;9.60;;
20150;SDS011;10236;49.638;6.830;2023-02-28T07:00:04;13.67;;;9.63;;
20150;SDS011;10236;49.638;6.830;2023-02-28T07:02:32;13.00;;;9.33;;
20150;SDS011;10236;49.638;6.830;2023-02-28T07:04:58;15.03;;;9.40;;
20150;SDS011;10236;49.638;6.830;2023-02-28T07:07:24;14.13;;;9.77;;
20150;SDS011;10236;49.638;6.830;2023-02-28T07:09:50;10.97;;;8.30;;
20150;SDS011;10236;49.638;6.830;2023-02-28T07:12:18;15.33;;;8.97;;
20150;SDS011;10236;49.638;6.830;2023-02-28T07:14:44;11.23;;;8.47;;
20150;SDS011;10236;49.638;6.830;2023-02-28T07:17:10;11.50;;;8.90;;
20150;SDS011;10236;49.638;6.830;2023-02-28T07:19:37;11.40;;;8.37;;
20150;SDS011;10236;49.638;6.830;2023-02-28T07:22:04;12.33;;;9.30;;
20150;SDS011;10236;49.638;6.830;2023-02-28T07:24:30;11.03;;;8.73;;
20150;SDS011;10236;49.638;6.830;2023-02-28T07:26:56;13.63;;;8.90;;
20150;SDS011;10236;49.638;6.830;2023-02-28T07:29:22;13.10;;;7.93;;
20150;SDS011;10236;49.638;6.830;2023-02-28T07:31:47;10.57;;;8.17;;
20150;SDS011;10236;49.638;6.830;2023-02-28T07:34:15;12.90;;;8.47;;
20150;SDS011;10236;49.638;6.830;2023-02-28T07:36:41;11.90;;;8.00;;
20150;SDS011;10236;49.638;6.830;2023-02-28T07:39:07;11.90;;;8.43;;
20150;SDS011;10236;49.638;6.830;2023-02-28T07:41:34;10.83;;;8.43;;
20150;SDS011;10236;49.638;6.830;2023-02-28T07:44:08;11.97;;;8.43;;
20150;SDS011;10236;49.638;6.830;2023-02-28T07:46:34;11.43;;;8.57;;
20150;SDS011;10236;49.638;6.830;2023-02-28T07:49:01;12.97;;;8.97;;
20150;SDS011;10236;49.638;6.830;2023-02-28T07:51:28;9.60;;;8.00;;
20150;SDS011;10236;49.638;6.830;2023-02-28T07:53:54;9.90;;;7.57;;
20150;SDS011;10236;49.638;6.830;2023-02-28T07:56:20;11.73;;;7.70;;
20150;SDS011;10236;49.638;6.830;2023-02-28T07:58:46;10.30;;;7.90;;
20150;SDS011;10236;49.638;6.830;2023-02-28T08:01:12;9.57;;;7.17;;
20150;SDS011;10236;49.638;6.830;2023-02-28T08:03:38;10.60;;;7.03;;
20150;SDS011;10236;49.638;6.830;2023-02-28T08:06:05;7.73;;;6.60;;
20150;SDS011;10236;49.638;6.830;2023-02-28T08:08:31;8.37;;;6.73;;
20150;SDS011;10236;49.638;6.830;2023-02-28T08:10:59;8.80;;;6.07;;
20150;SDS011;10236;49.638;6.830;2023-02-28T08:13:25;7.63;;;6.00;;
20150;SDS011;10236;49.638;6.830;2023-02-28T08:15:52;8.93;;;6.10;;
20150;SDS011;10236;49.638;6.830;2023-02-28T08:18:22;9.67;;;6.20;;
20150;SDS011;10236;49.638;6.830;2023-02-28T08:20:50;7.50;;;5.63;;
20150;SDS011;10236;49.638;6.830;2023-02-28T08:23:16;10.03;;;5.40;;
20150;SDS011;10236;49.638;6.830;2023-02-28T08:25:42;7.43;;;5.83;;
20150;SDS011;10236;49.638;6.830;2023-02-28T08:28:08;8.10;;;4.97;;
20150;SDS011;10236;49.638;6.830;2023-02-28T08:30:34;6.87;;;5.70;;
20150;SDS011;10236;49.638;6.830;2023-02-28T08:33:00;6.97;;;5.23;;
20150;SDS011;10236;49.638;6.830;2023-02-28T08:35:26;9.37;;;5.93;;
20150;SDS011;10236;49.638;6.830;2023-02-28T08:37:52;9.63;;;5.70;;
20150;SDS011;10236;49.638;6.830;2023-02-28T08:40:18;6.90;;;5.20;;
20150;SDS011;10236;49.638;6.830;2023-02-28T08:42:45;11.37;;;5.50;;
20150;SDS011;10236;49.638;6.830;2023-02-28T08:45:11;6.50;;;4.87;;
20150;SDS011;10236;49.638;6.830;2023-02-28T08:47:37;6.87;;;4.93;;
20150;SDS011;10236;49.638;6.830;2023-02-28T08:50:04;7.47;;;5.20;;
20150;SDS011;10236;49.638;6.830;2023-02-28T08:52:30;9.30;;;5.10;;
20150;SDS011;10236;49.638;6.830;2023-02-28T08:54:56;6.70;;;4.17;;
20150;SDS011;10236;49.638;6.830;2023-02-28T08:57:22;5.47;;;4.00;;
20150;SDS011;10236;49.638;6.830;2023-02-28T08:59:50;5.50;;;3.83;;
20150;SDS011;10236;49.638;6.830;2023-02-28T09:02:16;9.63;;;4.30;;
20150;SDS011;10236;49.638;6.830;2023-02-28T09:04:42;5.63;;;4.53;;
20150;SDS011;10236;49.638;6.830;2023-02-28T09:07:10;6.43;;;3.70;;
20150;SDS011;10236;49.638;6.830;2023-02-28T09:09:39;6.03;;;4.07;;
20150;SDS011;10236;49.638;6.830;2023-02-28T09:12:19;4.80;;;3.80;;
20150;SDS011;10236;49.638;6.830;2023-02-28T09:14:45;6.00;;;3.47;;
20150;SDS011;10236;49.638;6.830;2023-02-28T09:20:28;7.43;;;3.80;;
20150;SDS011;10236;49.638;6.830;2023-02-28T09:25:54;7.33;;;3.30;;
20150;SDS011;10236;49.638;6.830;2023-02-28T09:28:27;6.17;;;4.13;;
20150;SDS011;10236;49.638;6.830;2023-02-28T09:30:53;6.70;;;3.30;;
20150;SDS011;10236;49.638;6.830;2023-02-28T09:33:20;4.57;;;3.40;;
20150;SDS011;10236;49.638;6.830;2023-02-28T09:38:52;4.53;;;3.43;;
20150;SDS011;10236;49.638;6.830;2023-02-28T09:43:56;4.03;;;3.07;;
20150;SDS011;10236;49.638;6.830;2023-02-28T09:48:49;4.50;;;3.37;;
20150;SDS011;10236;49.638;6.830;2023-02-28T09:55:04;4.77;;;3.73;;
20150;SDS011;10236;49.638;6.830;2023-02-28T10:00:05;6.53;;;3.60;;
20150;SDS011;10236;49.638;6.830;2023-02-28T10:02:46;6.67;;;3.50;;
20150;SDS011;10236;49.638;6.830;2023-02-28T10:05:15;4.83;;;3.90;;
20150;SDS011;10236;49.638;6.830;2023-02-28T10:13:00;5.60;;;3.80;;
20150;SDS011;10236;49.638;6.830;2023-02-28T10:15:30;7.70;;;4.57;;
20150;SDS011;10236;49.638;6.830;2023-02-28T10:17:58;5.97;;;4.00;;
20150;SDS011;10236;49.638;6.830;2023-02-28T10:20:25;4.17;;;3.33;;
20150;SDS011;10236;49.638;6.830;2023-02-28T10:22:58;5.13;;;3.63;;
20150;SDS011;10236;49.638;6.830;2023-02-28T10:25:29;4.30;;;3.17;;
20150;SDS011;10236;49.638;6.830;2023-02-28T10:28:30;7.03;;;3.60;;
20150;SDS011;10236;49.638;6.830;2023-02-28T10:30:59;7.87;;;4.20;;
20150;SDS011;10236;49.638;6.830;2023-02-28T10:33:30;5.73;;;4.00;;
20150;SDS011;10236;49.638;6.830;2023-02-28T10:35:56;8.00;;;4.60;;
20150;SDS011;10236;49.638;6.830;2023-02-28T10:50:04;5.77;;;4.03;;
20150;SDS011;10236;49.638;6.830;2023-02-28T10:52:38;5.63;;;3.93;;
20150;SDS011;10236;49.638;6.830;2023-02-28T10:55:21;5.97;;;4.70;;
20150;SDS011;10236;49.638;6.830;2023-02-28T10:57:50;7.93;;;4.40;;
20150;SDS011;10236;49.638;6.830;2023-02-28T11:00:17;5.53;;;4.17;;
20150;SDS011;10236;49.638;6.830;2023-02-28T11:02:47;5.37;;;3.83;;
20150;SDS011;10236;49.638;6.830;2023-02-28T11:05:24;5.20;;;4.20;;
20150;SDS011;10236;49.638;6.830;2023-02-28T11:07:54;9.83;;;4.50;;
20150;SDS011;10236;49.638;6.830;2023-02-28T11:10:21;6.40;;;4.50;;
20150;SDS011;10236;49.638;6.830;2023-02-28T11:12:50;6.57;;;4.27;;
20150;SDS011;10236;49.638;6.830;2023-02-28T11:15:30;6.53;;;3.90;;
20150;SDS011;10236;49.638;6.830;2023-02-28T11:17:58;6.47;;;4.27;;
20150;SDS011;10236;49.638;6.830;2023-02-28T11:20:28;4.97;;;3.90;;
20150;SDS011;10236;49.638;6.830;2023-02-28T11:22:57;6.90;;;4.50;;
20150;SDS011;10236;49.638;6.830;2023-02-28T11:25:26;6.90;;;4.20;;
20150;SDS011;10236;49.638;6.830;2023-02-28T11:27:55;5.43;;;3.93;;
20150;SDS011;10236;49.638;6.830;2023-02-28T11:30:26;7.93;;;4.70;;
20150;SDS011;10236;49.638;6.830;2023-02-28T11:32:54;9.53;;;4.70;;
20150;SDS011;10236;49.638;6.830;2023-02-28T11:38:40;7.57;;;4.57;;
20150;SDS011;10236;49.638;6.830;2023-02-28T11:46:46;5.87;;;3.93;;
20150;SDS011;10236;49.638;6.830;2023-02-28T11:58:22;6.97;;;3.83;;
20150;SDS011;10236;49.638;6.830;2023-02-28T12:03:42;6.13;;;4.23;;
20150;SDS011;10236;49.638;6.830;2023-02-28T12:06:13;8.80;;;4.47;;
20150;SDS011;10236;49.638;6.830;2023-02-28T12:11:32;5.30;;;3.50;;
20150;SDS011;10236;49.638;6.830;2023-02-28T12:27:40;4.50;;;3.20;;
20150;SDS011;10236;49.638;6.830;2023-02-28T12:32:41;4.13;;;3.43;;
20150;SDS011;10236;49.638;6.830;2023-02-28T12:37:41;4.93;;;3.53;;
20150;SDS011;10236;49.638;6.830;2023-02-28T12:40:18;5.57;;;3.67;;
20150;SDS011;10236;49.638;6.830;2023-02-28T12:42:58;5.20;;;3.10;;
20150;SDS011;10236;49.638;6.830;2023-02-28T12:45:27;4.70;;;3.50;;
20150;SDS011;10236;49.638;6.830;2023-02-28T12:47:59;4.97;;;3.87;;
20150;SDS011;10236;49.638;6.830;2023-02-28T12:50:27;4.20;;;3.53;;
20150;SDS011;10236;49.638;6.830;2023-02-28T12:58:27;5.53;;;3.87;;
20150;SDS011;10236;49.638;6.830;2023-02-28T13:03:36;5.77;;;4.20;;
20150;SDS011;10236;49.638;6.830;2023-02-28T13:09:08;5.67;;;4.00;;
20150;SDS011;10236;49.638;6.830;2023-02-28T13:11:54;6.50;;;4.50;;
20150;SDS011;10236;49.638;6.830;2023-02-28T13:14:23;4.73;;;3.93;;
20150;SDS011;10236;49.638;6.830;2023-02-28T13:19:32;6.87;;;4.50;;
20150;SDS011;10236;49.638;6.830;2023-02-28T13:22:05;5.60;;;4.00;;
20150;SDS011;10236;49.638;6.830;2023-02-28T13:29:37;6.47;;;4.93;;
20150;SDS011;10236;49.638;6.830;2023-02-28T13:34:30;7.53;;;4.77;;
20150;SDS011;10236;49.638;6.830;2023-02-28T13:50:34;5.73;;;4.33;;
20150;SDS011;10236;49.638;6.830;2023-02-28T13:52:54;5.30;;;4.47;;
20150;SDS011;10236;49.638;6.830;2023-02-28T13:55:25;8.97;;;5.23;;
20150;SDS011;10236;49.638;6.830;2023-02-28T14:00:36;6.23;;;4.70;;
20150;SDS011;10236;49.638;6.830;2023-02-28T14:06:08;9.83;;;4.40;;
20150;SDS011;10236;49.638;6.830;2023-02-28T14:11:28;6.07;;;4.70;;
20150;SDS011;10236;49.638;6.830;2023-02-28T14:14:03;5.50;;;4.57;;
20150;SDS011;10236;49.638;6.830;2023-02-28T14:16:52;6.17;;;4.90;;
20150;SDS011;10236;49.638;6.830;2023-02-28T14:40:30;10.63;;;8.40;;
20150;SDS011;10236;49.638;6.830;2023-02-28T14:42:59;9.43;;;6.20;;
20150;SDS011;10236;49.638;6.830;2023-02-28T14:45:25;7.40;;;5.33;;
20150;SDS011;10236;49.638;6.830;2023-02-28T14:47:53;8.43;;;6.30;;
20150;SDS011;10236;49.638;6.830;2023-02-28T14:50:22;6.27;;;5.60;;
20150;SDS011;10236;49.638;6.830;2023-02-28T14:52:52;7.17;;;5.23;;
20150;SDS011;10236;49.638;6.830;2023-02-28T14:55:20;7.57;;;6.20;;
20150;SDS011;10236;49.638;6.830;2023-02-28T15:00:25;9.50;;;5.70;;
20150;SDS011;10236;49.638;6.830;2023-02-28T15:02:54;7.87;;;5.07;;
20150;SDS011;10236;49.638;6.830;2023-02-28T15:08:28;9.53;;;6.43;;
20150;SDS011;10236;49.638;6.830;2023-02-28T15:11:02;7.70;;;5.90;;
20150;SDS011;10236;49.638;6.830;2023-02-28T15:13:39;6.90;;;5.00;;
20150;SDS011;10236;49.638;6.830;2023-02-28T15:16:08;7.90;;;5.43;;
20150;SDS011;10236;49.638;6.830;2023-02-28T15:21:15;8.83;;;6.57;;
20150;SDS011;10236;49.638;6.830;2023-02-28T15:26:46;10.67;;;6.73;;
20150;SDS011;10236;49.638;6.830;2023-02-28T15:29:14;8.07;;;5.70;;
20150;SDS011;10236;49.638;6.830;2023-02-28T15:34:26;8.17;;;5.77;;
20150;SDS011;10236;49.638;6.830;2023-02-28T15:36:54;8.67;;;6.10;;
20150;SDS011;10236;49.638;6.830;2023-02-28T15:39:21;8.63;;;6.80;;
20150;SDS011;10236;49.638;6.830;2023-02-28T15:41:48;14.30;;;8.50;;
20150;SDS011;10236;49.638;6.830;2023-02-28T15:46:55;8.50;;;6.10;;
20150;SDS011;10236;49.638;6.830;2023-02-28T15:49:22;9.73;;;6.30;;
20150;SDS011;10236;49.638;6.830;2023-02-28T15:51:50;11.80;;;7.43;;
20150;SDS011;10236;49.638;6.830;2023-02-28T15:54:19;8.37;;;6.77;;
20150;SDS011;10236;49.638;6.830;2023-02-28T15:56:49;10.83;;;7.70;;
20150;SDS011;10236;49.638;6.830;2023-02-28T16:05:25;13.23;;;9.17;;
20150;SDS011;10236;49.638;6.830;2023-02-28T16:07:56;7.17;;;6.07;;
20150;SDS011;10236;49.638;6.830;2023-02-28T16:10:22;9.23;;;7.13;;
20150;SDS011;10236;49.638;6.830;2023-02-28T16:12:52;8.07;;;6.70;;
20150;SDS011;10236;49.638;6.830;2023-02-28T16:17:47;8.40;;;7.13;;
20150;SDS011;10236;49.638;6.830;2023-02-28T16:20:20;8.33;;;6.30;;
20150;SDS011;10236;49.638;6.830;2023-02-28T16:22:47;9.30;;;6.43;;
20150;SDS011;10236;49.638;6.830;2023-02-28T16:25:13;10.17;;;7.23;;
20150;SDS011;10236;49.638;6.830;2023-02-28T16:27:39;7.63;;;5.87;;
20150;SDS011;10236;49.638;6.830;2023-02-28T16:30:06;6.93;;;5.90;;
20150;SDS011;10236;49.638;6.830;2023-02-28T16:32:36;8.57;;;5.87;;
20150;SDS011;10236;49.638;6.830;2023-02-28T16:35:02;9.70;;;6.40;;
20150;SDS011;10236;49.638;6.830;2023-02-28T16:37:28;9.17;;;6.77;;
20150;SDS011;10236;49.638;6.830;2023-02-28T16:39:54;7.73;;;6.00;;
20150;SDS011;10236;49.638;6.830;2023-02-28T16:42:23;8.13;;;6.67;;
20150;SDS011;10236;49.638;6.830;2023-02-28T16:44:50;9.07;;;7.80;;
20150;SDS011;10236;49.638;6.830;2023-02-28T16:47:17;9.10;;;6.87;;
20150;SDS011;10236;49.638;6.830;2023-02-28T16:49:43;8.60;;;6.83;;
20150;SDS011;10236;49.638;6.830;2023-02-28T16:52:10;10.07;;;6.80;;
20150;SDS011;10236;49.638;6.830;2023-02-28T16:54:37;12.23;;;8.83;;
20150;SDS011;10236;49.638;6.830;2023-02-28T16:57:03;11.20;;;8.07;;
20150;SDS011;10236;49.638;6.830;2023-02-28T16:59:30;15.80;;;9.67;;
20150;SDS011;10236;49.638;6.830;2023-02-28T17:01:56;15.77;;;10.30;;
20150;SDS011;10236;49.638;6.830;2023-02-28T17:04:24;14.03;;;9.33;;
20150;SDS011;10236;49.638;6.830;2023-02-28T17:06:50;14.10;;;9.67;;
20150;SDS011;10236;49.638;6.830;2023-02-28T17:09:17;19.97;;;11.23;;
20150;SDS011;10236;49.638;6.830;2023-02-28T17:11:43;26.37;;;13.33;;
20150;SDS011;10236;49.638;6.830;2023-02-28T17:14:09;16.60;;;9.57;;
20150;SDS011;10236;49.638;6.830;2023-02-28T17:16:38;13.90;;;9.50;;
20150;SDS011;10236;49.638;6.830;2023-02-28T17:19:05;18.57;;;11.77;;
20150;SDS011;10236;49.638;6.830;2023-02-28T17:21:31;15.33;;;9.40;;
20150;SDS011;10236;49.638;6.830;2023-02-28T17:23:58;14.93;;;10.13;;
20150;SDS011;10236;49.638;6.830;2023-02-28T17:26:24;14.30;;;10.00;;
20150;SDS011;10236;49.638;6.830;2023-02-28T17:28:51;25.47;;;14.83;;
20150;SDS011;10236;49.638;6.830;2023-02-28T17:31:18;19.07;;;11.90;;
20150;SDS011;10236;49.638;6.830;2023-02-28T17:33:44;28.13;;;16.13;;
20150;SDS011;10236;49.638;6.830;2023-02-28T17:36:14;19.53;;;11.60;;
20150;SDS011;10236;49.638;6.830;2023-02-28T17:38:40;22.53;;;13.33;;
20150;SDS011;10236;49.638;6.830;2023-02-28T17:41:14;28.87;;;14.73;;
20150;SDS011;10236;49.638;6.830;2023-02-28T17:43:40;18.60;;;13.07;;
20150;SDS011;10236;49.638;6.830;2023-02-28T17:46:19;11.70;;;8.87;;
20150;SDS011;10236;49.638;6.830;2023-02-28T17:48:54;9.70;;;8.20;;
20150;SDS011;10236;49.638;6.830;2023-02-28T17:51:26;11.20;;;8.63;;
20150;SDS011;10236;49.638;6.830;2023-02-28T17:53:52;11.50;;;7.90;;
20150;SDS011;10236;49.638;6.830;2023-02-28T17:56:19;14.77;;;8.03;;
20150;SDS011;10236;49.638;6.830;2023-02-28T17:58:49;11.37;;;8.07;;
20150;SDS011;10236;49.638;6.830;2023-02-28T18:01:15;10.47;;;8.43;;
20150;SDS011;10236;49.638;6.830;2023-02-28T18:03:41;10.90;;;8.63;;
20150;SDS011;10236;49.638;6.830;2023-02-28T18:06:18;19.10;;;12.77;;
20150;SDS011;10236;49.638;6.830;2023-02-28T18:08:45;23.23;;;13.87;;
20150;SDS011;10236;49.638;6.830;2023-02-28T18:11:11;23.87;;;14.73;;
20150;SDS011;10236;49.638;6.830;2023-02-28T18:13:42;19.27;;;12.70;;
20150;SDS011;10236;49.638;6.830;2023-02-28T18:16:08;18.30;;;13.57;;
20150;SDS011;10236;49.638;6.830;2023-02-28T18:18:36;16.77;;;11.63;;
20150;SDS011;10236;49.638;6.830;2023-02-28T18:21:06;12.90;;;9.83;;
20150;SDS011;10236;49.638;6.830;2023-02-28T18:23:33;15.17;;;11.93;;
20150;SDS011;10236;49.638;6.830;2023-02-28T18:25:59;17.00;;;11.67;;
20150;SDS011;10236;49.638;6.830;2023-02-28T18:28:25;12.47;;;9.20;;
20150;SDS011;10236;49.638;6.830;2023-02-28T18:30:51;12.13;;;8.73;;
20150;SDS011;10236;49.638;6.830;2023-02-28T18:33:17;11.33;;;7.70;;
20150;SDS011;10236;49.638;6.830;2023-02-28T18:35:44;13.67;;;9.37;;
20150;SDS011;10236;49.638;6.830;2023-02-28T18:38:12;15.47;;;10.97;;
20150;SDS011;10236;49.638;6.830;2023-02-28T18:40:39;14.07;;;9.90;;
20150;SDS011;10236;49.638;6.830;2023-02-28T18:43:06;13.30;;;8.97;;
20150;SDS011;10236;49.638;6.830;2023-02-28T18:48:27;9.63;;;7.47;;
20150;SDS011;10236;49.638;6.830;2023-02-28T18:50:53;10.60;;;7.80;;
20150;SDS011;10236;49.638;6.830;2023-02-28T18:53:19;10.83;;;7.83;;
20150;SDS011;10236;49.638;6.830;2023-02-28T18:55:45;12.43;;;8.37;;
20150;SDS011;10236;49.638;6.830;2023-02-28T18:58:11;21.00;;;13.10;;
20150;SDS011;10236;49.638;6.830;2023-02-28T19:00:38;32.37;;;15.37;;
20150;SDS011;10236;49.638;6.830;2023-02-28T19:03:04;49.17;;;20.57;;
20150;SDS011;10236;49.638;6.830;2023-02-28T19:05:30;31.20;;;15.77;;
20150;SDS011;10236;49.638;6.830;2023-02-28T19:07:58;31.70;;;16.40;;
20150;SDS011;10236;49.638;6.830;2023-02-28T19:10:24;30.70;;;16.03;;